createdAt,value
2022-08-10T00:01:51.229Z,98164.06
2022-08-10T00:04:22.268Z,98162.47
2022-08-10T00:06:53.899Z,98168.56
2022-08-10T00:09:23.545Z,98171.97
2022-08-10T00:11:52.144Z,98173.56
2022-08-10T00:14:20.624Z,98174.78
2022-08-10T00:16:49.252Z,98162.81
2022-08-10T00:19:18.329Z,98159.50
2022-08-10T00:21:47.633Z,98160.16
2022-08-10T00:24:17.805Z,98157.88
2022-08-10T00:27:51.708Z,98171.81
2022-08-10T00:29:34.726Z,98164.69
2022-08-10T00:32:04.641Z,98169.38
2022-08-10T00:34:34.619Z,98158.66
2022-08-10T00:37:03.046Z,98156.94
2022-08-10T00:39:35.951Z,98154.22
2022-08-10T00:42:08.266Z,98158.09
2022-08-10T00:44:37.956Z,98160.94
2022-08-10T00:47:06.869Z,98160.16
2022-08-10T00:49:38.851Z,98149.44
2022-08-10T00:52:08.198Z,98158.50
2022-08-10T00:54:38.545Z,98159.00
2022-08-10T00:57:17.814Z,98157.06
2022-08-10T00:59:59.408Z,98152.34
2022-08-10T01:02:30.836Z,98149.75
2022-08-10T01:05:02.441Z,98154.72
2022-08-10T01:07:46.801Z,98152.09
2022-08-10T01:10:26.913Z,98163.66
2022-08-10T01:13:02.243Z,98157.25
2022-08-10T01:15:35.377Z,98153.63
2022-08-10T01:18:07.445Z,98144.25
2022-08-10T01:20:43.258Z,98155.78
2022-08-10T01:23:41.065Z,98149.47
2022-08-10T01:26:43.358Z,98144.78
2022-08-10T01:29:45.064Z,98147.63
2022-08-10T01:32:18.785Z,98150.34
2022-08-10T01:34:51.979Z,98156.59
2022-08-10T01:37:26.038Z,98145.06
2022-08-10T01:39:59.806Z,98149.75
2022-08-10T01:42:33.842Z,98160.00
2022-08-10T01:45:06.000Z,98158.19
2022-08-10T01:47:57.962Z,98152.88
2022-08-10T01:50:30.895Z,98149.31
2022-08-10T01:53:04.965Z,98148.34
2022-08-10T01:55:34.262Z,98147.41
2022-08-10T01:58:05.679Z,98153.34
2022-08-10T02:00:36.273Z,98143.34
2022-08-10T02:03:08.526Z,98154.31
2022-08-10T02:05:39.953Z,98150.16
2022-08-10T02:08:12.746Z,98152.53
2022-08-10T02:10:44.017Z,98156.91
2022-08-10T02:13:16.095Z,98163.09
2022-08-10T02:16:01.427Z,98163.47
2022-08-10T02:18:32.730Z,98157.16
2022-08-10T02:21:04.989Z,98165.41
2022-08-10T02:23:35.701Z,98165.63
2022-08-10T02:26:05.146Z,98160.25
2022-08-10T02:28:36.489Z,98156.22
2022-08-10T02:31:11.544Z,98161.63
2022-08-10T02:33:56.312Z,98158.84
2022-08-10T02:36:29.041Z,98158.72
2022-08-10T02:39:01.373Z,98156.69
2022-08-10T02:45:14.108Z,98153.09
2022-08-10T02:45:20.483Z,98152.63
2022-08-10T02:47:23.290Z,98152.94
2022-08-10T02:50:00.564Z,98149.81
2022-08-10T02:52:34.927Z,98156.16
2022-08-10T02:55:18.315Z,98155.00
2022-08-10T02:58:17.147Z,98154.19
2022-08-10T03:00:44.567Z,98151.19
2022-08-10T03:03:18.968Z,98142.53
2022-08-10T03:05:50.423Z,98150.38
2022-08-10T03:08:22.587Z,98144.00
2022-08-10T03:10:52.141Z,98151.31
2022-08-10T03:13:21.735Z,98140.81
2022-08-10T03:15:51.784Z,98139.66
2022-08-10T03:18:22.779Z,98136.78
2022-08-10T03:20:54.289Z,98135.69
2022-08-10T03:23:25.279Z,98141.84
2022-08-10T03:25:57.518Z,98145.16
2022-08-10T03:28:28.833Z,98147.66
2022-08-10T03:30:59.345Z,98154.72
2022-08-10T03:33:31.446Z,98142.94
2022-08-10T03:36:41.445Z,98145.13
2022-08-10T03:38:52.586Z,98152.06
2022-08-10T03:41:25.749Z,98150.25
2022-08-10T03:43:59.500Z,98157.25
2022-08-10T03:46:29.651Z,98153.63
2022-08-10T03:49:01.865Z,98156.53
2022-08-10T03:51:32.214Z,98147.03
2022-08-10T03:54:05.590Z,98156.53
2022-08-10T03:56:37.848Z,98150.19
2022-08-10T03:59:07.179Z,98151.59
2022-08-10T04:02:44.576Z,98150.13
2022-08-10T04:04:25.112Z,98151.84
2022-08-10T04:06:56.517Z,98147.34
2022-08-10T04:09:42.685Z,98157.06
2022-08-10T04:12:15.778Z,98162.38
2022-08-10T04:14:49.657Z,98163.59
2022-08-10T04:17:18.554Z,98168.47
2022-08-10T04:20:10.156Z,98163.09
2022-08-10T04:22:41.158Z,98178.31
2022-08-10T04:25:11.530Z,98177.91
2022-08-10T04:27:40.169Z,98180.13
2022-08-10T04:30:09.766Z,98175.31
2022-08-10T04:32:39.449Z,98180.63
2022-08-10T04:35:11.224Z,98182.34
2022-08-10T04:37:47.282Z,98175.69
2022-08-10T04:40:28.607Z,98173.44
2022-08-10T04:43:03.323Z,98175.50
2022-08-10T04:45:50.423Z,98172.13
2022-08-10T04:48:40.444Z,98180.31
2022-08-10T04:51:17.045Z,98173.91
2022-08-10T04:54:06.124Z,98175.84
2022-08-10T04:56:40.132Z,98175.13
2022-08-10T04:59:10.053Z,98178.44
2022-08-10T05:02:28.531Z,98183.09
2022-08-10T05:04:35.840Z,98184.25
2022-08-10T05:07:09.380Z,98186.63
2022-08-10T05:10:01.100Z,98182.22
2022-08-10T05:12:28.398Z,98184.16
2022-08-10T05:14:56.996Z,98181.47
2022-08-10T05:17:25.433Z,98182.22
2022-08-10T05:20:04.046Z,98187.44
2022-08-10T05:22:39.508Z,98176.91
2022-08-10T05:25:12.605Z,98176.91
2022-08-10T05:27:41.920Z,98171.53
2022-08-10T05:30:13.418Z,98184.38
2022-08-10T05:32:56.870Z,98180.50
2022-08-10T05:35:52.372Z,98173.94
2022-08-10T05:38:21.683Z,98180.06
2022-08-10T05:40:51.623Z,98174.38
2022-08-10T05:43:22.102Z,98180.47
2022-08-10T05:46:19.013Z,98175.41
2022-08-10T05:48:58.693Z,98176.44
2022-08-10T05:51:29.904Z,98174.22
2022-08-10T05:54:04.933Z,98168.38
2022-08-10T05:56:54.211Z,98168.03
2022-08-10T06:00:10.886Z,98165.31
2022-08-10T06:02:30.639Z,98172.91
2022-08-10T06:05:05.043Z,98174.59
2022-08-10T06:07:33.899Z,98166.38
2022-08-10T06:10:03.957Z,98170.94
2022-08-10T06:12:54.442Z,98167.09
2022-08-10T06:15:51.713Z,98168.22
2022-08-10T06:18:15.513Z,98163.16
2022-08-10T06:20:44.268Z,98173.91
2022-08-10T06:23:13.673Z,98171.63
2022-08-10T06:26:10.903Z,98166.88
2022-08-10T06:28:35.924Z,98172.38
2022-08-10T06:31:06.498Z,98170.47
2022-08-10T06:33:39.346Z,98172.13
2022-08-10T06:36:10.634Z,98167.78
2022-08-10T06:38:40.545Z,98167.41
2022-08-10T06:41:16.839Z,98167.59
2022-08-10T06:43:55.717Z,98168.19
2022-08-10T06:46:25.951Z,98184.66
2022-08-10T06:48:58.401Z,98168.22
2022-08-10T06:51:30.916Z,98177.38
2022-08-10T06:54:02.485Z,98173.59
2022-08-10T06:56:37.414Z,98171.19
2022-08-10T06:59:21.968Z,98171.13
2022-08-10T07:01:55.870Z,98165.63
2022-08-10T07:04:32.207Z,98164.19
2022-08-10T07:07:05.265Z,98153.03
2022-08-10T07:09:36.274Z,98150.63
2022-08-10T07:12:09.096Z,98150.56
2022-08-10T07:14:47.072Z,98154.84
2022-08-10T07:17:18.674Z,98143.50
2022-08-10T07:19:52.165Z,98150.31
2022-08-10T07:23:27.399Z,98147.53
2022-08-10T07:25:16.242Z,98155.38
2022-08-10T07:28:00.859Z,98159.41
2022-08-10T07:30:35.034Z,98167.22
2022-08-10T07:33:07.026Z,98167.16
2022-08-10T07:35:42.563Z,98168.34
2022-08-10T07:38:18.212Z,98176.25
2022-08-10T07:40:49.318Z,98168.47
2022-08-10T07:43:19.306Z,98166.03
2022-08-10T07:45:50.547Z,98163.81
2022-08-10T07:48:23.765Z,98156.50
2022-08-10T07:50:55.157Z,98163.00
2022-08-10T07:53:27.536Z,98166.75
2022-08-10T07:56:04.548Z,98164.88
2022-08-10T07:58:46.120Z,98170.13
2022-08-10T08:01:22.305Z,98171.59
2022-08-10T08:04:11.004Z,98172.16
2022-08-10T08:06:41.580Z,98167.22
2022-08-10T08:09:11.644Z,98163.56
2022-08-10T08:11:42.566Z,98165.59
2022-08-10T08:14:12.151Z,98165.81
2022-08-10T08:16:45.133Z,98162.63
2022-08-10T08:19:35.526Z,98156.94
2022-08-10T08:24:07.235Z,98160.53
2022-08-10T08:24:53.330Z,98161.84
2022-08-10T08:27:22.763Z,98169.72
2022-08-10T08:29:53.117Z,98159.66
2022-08-10T08:32:26.799Z,98158.41
2022-08-10T08:34:58.945Z,98150.03
2022-08-10T08:38:29.176Z,98150.69
2022-08-10T08:40:24.595Z,98156.00
2022-08-10T08:43:25.507Z,98160.13
2022-08-10T08:46:19.555Z,98159.16
2022-08-10T08:49:09.707Z,98155.00
2022-08-10T08:52:16.911Z,98157.56
2022-08-10T08:54:47.841Z,98151.19
2022-08-10T08:57:49.149Z,98152.50
2022-08-10T09:00:20.012Z,98144.63
2022-08-10T09:03:11.524Z,98147.44
2022-08-10T09:05:58.681Z,98151.50
2022-08-10T09:08:42.372Z,98148.50
2022-08-10T09:11:25.615Z,98145.00
2022-08-10T09:14:02.232Z,98145.84
2022-08-10T09:16:43.938Z,98146.28
2022-08-10T09:19:36.685Z,98155.59
2022-08-10T09:22:18.284Z,98161.59
2022-08-10T09:24:55.074Z,98157.97
2022-08-10T09:27:26.446Z,98162.09
2022-08-10T09:29:56.810Z,98156.44
2022-08-10T09:36:16.837Z,98159.13
2022-08-10T09:36:20.167Z,98155.53
2022-08-10T09:38:29.906Z,98154.34
2022-08-10T09:41:12.308Z,98134.94
2022-08-10T09:43:52.500Z,98145.69
2022-08-10T09:46:41.140Z,98141.78
2022-08-10T09:49:18.522Z,98145.34
2022-08-10T09:51:56.178Z,98135.84
2022-08-10T09:54:40.688Z,98146.53
2022-08-10T09:57:51.744Z,98138.00
2022-08-10T10:00:11.552Z,98133.91
2022-08-10T10:02:50.842Z,98121.25
2022-08-10T10:05:52.224Z,98134.94
2022-08-10T10:08:33.546Z,98125.13
2022-08-10T10:11:13.225Z,98130.03
2022-08-10T10:14:02.456Z,98116.09
2022-08-10T10:16:45.109Z,98120.88
2022-08-10T10:19:28.527Z,98116.91
2022-08-10T10:22:08.234Z,98122.22
2022-08-10T10:24:42.720Z,98119.44
2022-08-10T10:27:24.815Z,98118.38
2022-08-10T10:30:00.728Z,98114.84
2022-08-10T10:32:50.360Z,98105.06
2022-08-10T10:35:28.060Z,98101.16
2022-08-10T10:38:03.222Z,98110.47
2022-08-10T10:40:43.420Z,98107.09
2022-08-10T10:43:27.325Z,98108.91
2022-08-10T10:46:13.114Z,98106.69
2022-08-10T10:48:53.789Z,98098.13
2022-08-10T10:51:27.765Z,98091.88
2022-08-10T10:54:05.886Z,98102.88
2022-08-10T10:56:43.751Z,98095.47
2022-08-10T10:59:53.651Z,98099.69
2022-08-10T11:02:26.118Z,98093.22
2022-08-10T11:05:03.887Z,98082.34
2022-08-10T11:07:39.342Z,98087.72
2022-08-10T11:10:32.848Z,98088.84
2022-08-10T11:14:25.673Z,98095.56
2022-08-10T11:16:12.386Z,98086.28
2022-08-10T11:18:55.635Z,98093.41
2022-08-10T11:21:34.393Z,98088.81
2022-08-10T11:24:48.419Z,98087.47
2022-08-10T11:27:03.542Z,98086.78
2022-08-10T11:29:41.488Z,98093.31
2022-08-10T11:32:21.221Z,98086.13
2022-08-10T11:35:10.290Z,98080.13
2022-08-10T11:38:31.957Z,98075.38
2022-08-10T11:40:40.413Z,98074.03
2022-08-10T11:43:14.425Z,98074.38
2022-08-10T11:45:52.260Z,98077.97
2022-08-10T11:48:53.415Z,98079.69
2022-08-10T11:51:28.015Z,98080.69
2022-08-10T11:54:03.146Z,98077.34
2022-08-10T11:56:39.846Z,98067.84
2022-08-10T11:59:25.641Z,98082.78
2022-08-10T12:01:54.405Z,98075.03
2022-08-10T12:04:25.657Z,98069.69
2022-08-10T12:06:56.245Z,98071.47
2022-08-10T12:10:11.389Z,98071.31
2022-08-10T12:12:17.275Z,98062.97
2022-08-10T12:14:52.599Z,98066.69
2022-08-10T12:17:26.595Z,98072.13
2022-08-10T12:20:03.972Z,98069.81
2022-08-10T12:22:37.495Z,98060.06
2022-08-10T12:25:10.314Z,98063.66
2022-08-10T12:27:43.249Z,98052.16
2022-08-10T12:30:16.013Z,98048.78
2022-08-10T12:32:50.352Z,98055.28
2022-08-10T12:35:26.857Z,98049.84
2022-08-10T12:38:07.123Z,98048.69
2022-08-10T12:40:43.373Z,98053.44
2022-08-10T12:44:04.884Z,98043.53
2022-08-10T12:46:08.380Z,98059.34
2022-08-10T12:48:40.625Z,98056.16
2022-08-10T12:51:16.090Z,98059.50
2022-08-10T12:53:51.442Z,98053.72
2022-08-10T12:56:26.604Z,98058.22
2022-08-10T12:59:00.117Z,98047.66
2022-08-10T13:02:07.481Z,98048.94
2022-08-10T13:04:29.391Z,98037.69
2022-08-10T13:07:01.870Z,98037.50
2022-08-10T13:09:30.522Z,98035.38
2022-08-10T13:12:38.956Z,98026.97
2022-08-10T13:14:55.985Z,98022.69
2022-08-10T13:17:39.020Z,98020.97
2022-08-10T13:20:19.255Z,98014.63
2022-08-10T13:22:50.704Z,98010.03
2022-08-10T13:25:23.468Z,98008.81
2022-08-10T13:28:00.971Z,97998.25
2022-08-10T13:30:44.160Z,98000.56
2022-08-10T13:34:40.549Z,98006.41
2022-08-10T13:36:16.234Z,98000.94
2022-08-10T13:38:48.884Z,98006.06
2022-08-10T13:41:18.214Z,98009.09
2022-08-10T13:43:52.214Z,98017.75
2022-08-10T13:46:23.493Z,98018.47
2022-08-10T13:48:53.439Z,98010.50
2022-08-10T13:51:54.535Z,98014.97
2022-08-10T13:54:19.083Z,98009.97
2022-08-10T13:56:49.926Z,98003.66
2022-08-10T13:59:20.463Z,98003.66
2022-08-10T14:01:51.099Z,98010.41
2022-08-10T14:04:20.153Z,98001.06
2022-08-10T14:06:55.641Z,98002.13
2022-08-10T14:09:32.271Z,97988.81
2022-08-10T14:12:00.677Z,97988.25
2022-08-10T14:14:30.309Z,97994.03
2022-08-10T14:16:59.821Z,97986.59
2022-08-10T14:19:30.466Z,97981.22
2022-08-10T14:21:58.949Z,97974.16
2022-08-10T14:24:32.838Z,97964.66
2022-08-10T14:27:06.038Z,97971.84
2022-08-10T14:29:40.706Z,97981.94
2022-08-10T14:32:12.118Z,97968.53
2022-08-10T14:36:16.027Z,97975.38
2022-08-10T14:37:38.301Z,97974.19
2022-08-10T14:40:14.181Z,97968.09
2022-08-10T14:42:47.005Z,97977.72
2022-08-10T14:45:23.179Z,97970.44
2022-08-10T14:47:59.381Z,97969.84
2022-08-10T14:50:33.504Z,97958.00
2022-08-10T14:53:09.285Z,97961.22
2022-08-10T14:55:58.609Z,97948.84
2022-08-10T14:58:31.759Z,97941.59
2022-08-10T15:01:00.878Z,97953.03
2022-08-10T15:03:59.379Z,97944.47
2022-08-10T15:06:30.968Z,97947.66
2022-08-10T15:09:05.059Z,97936.88
2022-08-10T15:12:14.033Z,97942.28
2022-08-10T15:14:43.071Z,97952.66
2022-08-10T15:17:14.515Z,97952.41
2022-08-10T15:20:02.803Z,97955.56
2022-08-10T15:22:38.800Z,97959.22
2022-08-10T15:25:18.057Z,97960.63
2022-08-10T15:27:53.455Z,97951.25
2022-08-10T15:30:30.567Z,97958.66
2022-08-10T15:34:02.905Z,97952.03
2022-08-10T15:36:32.893Z,97952.97
2022-08-10T15:39:05.665Z,97944.38
2022-08-10T15:41:57.433Z,97943.03
2022-08-10T15:44:36.796Z,97940.47
2022-08-10T15:47:09.197Z,97942.34
2022-08-10T15:49:45.663Z,97945.69
2022-08-10T15:52:39.084Z,97938.75
2022-08-10T15:55:43.571Z,97941.63
2022-08-10T15:58:06.852Z,97936.50
2022-08-10T16:00:40.754Z,97928.22
2022-08-10T16:03:14.538Z,97930.63
2022-08-10T16:06:01.563Z,97941.34
2022-08-10T16:08:56.031Z,97928.66
2022-08-10T16:11:37.587Z,97930.75
2022-08-10T16:14:11.548Z,97926.09
2022-08-10T16:16:42.584Z,97929.22
2022-08-10T16:19:23.825Z,97925.59
2022-08-10T16:21:57.300Z,97924.34
2022-08-10T16:24:26.922Z,97923.19
2022-08-10T16:26:55.843Z,97925.19
2022-08-10T16:29:27.042Z,97915.53
2022-08-10T16:31:59.821Z,97920.63
2022-08-10T16:34:32.411Z,97913.03
2022-08-10T16:37:03.933Z,97916.78
2022-08-10T16:39:58.008Z,97915.56
2022-08-10T16:42:28.401Z,97915.22
2022-08-10T16:45:01.576Z,97915.69
2022-08-10T16:47:33.457Z,97923.22
2022-08-10T16:50:05.047Z,97907.94
2022-08-10T16:52:34.534Z,97911.34
2022-08-10T16:55:23.763Z,97915.84
2022-08-10T16:57:55.580Z,97912.59
2022-08-10T17:00:24.857Z,97912.16
2022-08-10T17:02:59.182Z,97911.78
2022-08-10T17:06:01.540Z,97906.81
2022-08-10T17:08:24.107Z,97908.06
2022-08-10T17:10:56.452Z,97914.50
2022-08-10T17:13:27.649Z,97916.44
2022-08-10T17:16:00.092Z,97921.34
2022-08-10T17:18:30.784Z,97907.59
2022-08-10T17:21:06.440Z,97907.19
2022-08-10T17:23:39.022Z,97914.59
2022-08-10T17:26:11.777Z,97919.31
2022-08-10T17:28:44.972Z,97915.09
2022-08-10T17:31:53.963Z,97915.09
2022-08-10T17:34:20.391Z,97908.91
2022-08-10T17:36:52.422Z,97911.19
2022-08-10T17:39:23.935Z,97917.75
2022-08-10T17:41:53.881Z,97923.78
2022-08-10T17:44:22.973Z,97919.06
2022-08-10T17:46:52.514Z,97928.88
2022-08-10T17:49:22.119Z,97927.00
2022-08-10T17:51:54.834Z,97917.44
2022-08-10T17:54:29.211Z,97929.03
2022-08-10T17:57:00.553Z,97926.16
2022-08-10T17:59:31.218Z,97935.63
2022-08-10T18:02:04.330Z,97937.91
2022-08-10T18:04:41.802Z,97938.78
2022-08-10T18:07:12.657Z,97932.75
2022-08-10T18:09:44.528Z,97935.72
2022-08-10T18:12:17.729Z,97939.03
2022-08-10T18:14:51.244Z,97938.38
2022-08-10T18:17:23.188Z,97937.75
2022-08-10T18:19:57.814Z,97941.34
2022-08-10T18:22:26.813Z,97946.13
2022-08-10T18:24:57.483Z,97937.25
2022-08-10T18:27:46.509Z,97938.00
2022-08-10T18:30:17.161Z,97937.13
2022-08-10T18:32:50.115Z,97942.34
2022-08-10T18:35:21.191Z,97939.97
2022-08-10T18:37:53.058Z,97943.31
2022-08-10T18:40:21.584Z,97953.53
2022-08-10T18:44:02.824Z,97948.25
2022-08-10T18:45:57.779Z,97956.31
2022-08-10T18:48:34.269Z,97964.34
2022-08-10T18:51:07.393Z,97960.44
2022-08-10T18:53:38.266Z,97971.63
2022-08-10T18:56:17.221Z,97971.22
2022-08-10T18:59:02.732Z,97972.69
2022-08-10T19:01:49.625Z,97976.22
2022-08-10T19:04:28.623Z,97977.09
2022-08-10T19:07:27.554Z,97976.00
2022-08-10T19:10:09.432Z,97968.13
2022-08-10T19:12:45.631Z,97973.59
2022-08-10T19:15:24.170Z,97970.78
2022-08-10T19:18:07.708Z,97973.25
2022-08-10T19:20:42.361Z,97975.69
2022-08-10T19:23:24.745Z,97979.50
2022-08-10T19:26:38.185Z,97973.28
2022-08-10T19:28:59.237Z,97976.66
2022-08-10T19:31:44.138Z,97979.31
2022-08-10T19:34:34.799Z,97974.19
2022-08-10T19:37:15.773Z,97971.66
2022-08-10T19:39:59.849Z,97977.59
2022-08-10T19:42:34.943Z,97985.31
2022-08-10T19:45:56.133Z,97979.47
2022-08-10T19:48:12.964Z,97978.34
2022-08-10T19:50:45.657Z,97975.25
2022-08-10T19:53:24.962Z,97980.03
2022-08-10T19:56:18.770Z,97974.09
2022-08-10T19:59:11.381Z,97972.41
2022-08-10T20:01:55.138Z,97972.03
2022-08-10T20:04:31.956Z,97976.13
2022-08-10T20:07:12.519Z,97969.16
2022-08-10T20:09:48.395Z,97970.78
2022-08-10T20:12:30.802Z,97974.75
2022-08-10T20:15:05.038Z,97976.69
2022-08-10T20:17:51.062Z,97977.38
2022-08-10T20:20:30.991Z,97968.19
2022-08-10T20:23:09.510Z,97971.56
2022-08-10T20:25:37.845Z,97971.28
2022-08-10T20:28:16.288Z,97970.16
2022-08-10T20:30:47.918Z,97978.22
2022-08-10T20:33:25.967Z,97976.59
2022-08-10T20:36:03.565Z,97975.94
2022-08-10T20:38:40.057Z,97976.72
2022-08-10T20:41:19.127Z,97981.47
2022-08-10T20:44:03.571Z,97974.31
2022-08-10T20:46:38.954Z,97981.28
2022-08-10T20:49:20.909Z,97982.44
2022-08-10T20:51:57.557Z,97988.78
2022-08-10T20:54:32.684Z,97983.00
2022-08-10T20:58:04.053Z,97985.56
2022-08-10T21:00:13.429Z,97985.38
2022-08-10T21:02:58.229Z,97984.09
2022-08-10T21:05:34.535Z,97989.03
2022-08-10T21:08:17.456Z,97984.84
2022-08-10T21:10:59.909Z,97984.53
2022-08-10T21:13:44.396Z,97987.94
2022-08-10T21:16:37.379Z,97988.09
2022-08-10T21:19:36.049Z,97980.97
2022-08-10T21:22:13.153Z,97986.31
2022-08-10T21:24:52.301Z,97988.25
2022-08-10T21:28:16.813Z,97985.25
2022-08-10T21:31:39.134Z,97981.72
2022-08-10T21:34:31.678Z,97988.25
2022-08-10T21:37:08.252Z,97985.63
2022-08-10T21:39:52.489Z,97987.06
2022-08-10T21:42:54.350Z,97991.09
2022-08-10T21:45:58.976Z,97988.47
2022-08-10T21:48:57.267Z,97977.41
2022-08-10T21:52:01.758Z,97976.81
2022-08-10T21:54:58.838Z,97988.69
2022-08-10T21:57:48.581Z,97987.25
2022-08-10T22:00:35.833Z,97982.78
2022-08-10T22:03:23.348Z,97989.47
2022-08-10T22:06:14.425Z,97976.22
2022-08-10T22:09:04.774Z,97985.16
2022-08-10T22:11:53.729Z,97985.22
2022-08-10T22:14:44.493Z,97983.94
2022-08-10T22:18:00.222Z,97980.03
2022-08-10T22:20:44.465Z,97986.00
2022-08-10T22:23:48.093Z,97986.06
2022-08-10T22:27:00.466Z,97983.88
2022-08-10T22:29:52.653Z,97983.91
2022-08-10T22:32:49.164Z,97986.00
2022-08-10T22:35:57.077Z,97989.78
2022-08-10T22:38:57.175Z,97980.75
2022-08-10T22:41:53.001Z,97977.78
2022-08-10T22:44:41.034Z,97988.22
2022-08-10T22:47:30.334Z,97981.63
2022-08-10T22:50:03.451Z,97974.03
2022-08-10T22:53:01.767Z,97976.22
2022-08-10T22:55:53.421Z,97976.81
2022-08-10T22:58:40.956Z,97982.25
2022-08-10T23:01:36.172Z,97982.47
2022-08-10T23:04:09.419Z,97979.22
2022-08-10T23:06:40.875Z,97980.69
2022-08-10T23:09:13.545Z,97987.16
2022-08-10T23:11:45.106Z,97986.81
2022-08-10T23:14:22.037Z,97978.13
2022-08-10T23:17:12.020Z,97976.78
2022-08-10T23:19:45.616Z,97971.75
2022-08-10T23:22:16.106Z,97973.22
2022-08-10T23:24:47.678Z,97971.06
2022-08-10T23:27:39.058Z,97978.94
2022-08-10T23:30:18.039Z,97967.25
2022-08-10T23:32:48.945Z,97972.63
2022-08-10T23:36:30.827Z,97973.28
2022-08-10T23:38:10.227Z,97970.09
2022-08-10T23:40:39.113Z,97972.50
2022-08-10T23:43:08.089Z,97968.53
2022-08-10T23:45:53.080Z,97973.91
2022-08-10T23:48:24.954Z,97974.31
2022-08-10T23:50:58.364Z,97970.13
2022-08-10T23:53:31.255Z,97975.88
2022-08-10T23:56:07.585Z,97975.53
2022-08-10T23:58:40.842Z,97979.16
